sensor_id;sensor_type;location;lat;lon;timestamp;temperature;humidity
27667;DHT22;15074;50.940;5.282;2023-05-25T00:02:02;11.80;99.90
27667;DHT22;15074;50.940;5.282;2023-05-25T00:04:31;11.70;99.90
27667;DHT22;15074;50.940;5.282;2023-05-25T00:07:02;11.60;99.90
27667;DHT22;15074;50.940;5.282;2023-05-25T00:09:28;11.60;99.90
27667;DHT22;15074;50.940;5.282;2023-05-25T00:11:54;11.60;99.90
27667;DHT22;15074;50.940;5.282;2023-05-25T00:14:20;11.60;99.90
27667;DHT22;15074;50.940;5.282;2023-05-25T00:16:46;11.50;99.90
27667;DHT22;15074;50.940;5.282;2023-05-25T00:19:13;11.60;99.90
27667;DHT22;15074;50.940;5.282;2023-05-25T00:21:40;11.60;99.90
27667;DHT22;15074;50.940;5.282;2023-05-25T00:24:06;11.40;99.90
27667;DHT22;15074;50.940;5.282;2023-05-25T00:26:33;11.40;99.90
27667;DHT22;15074;50.940;5.282;2023-05-25T00:28:59;11.30;99.90
27667;DHT22;15074;50.940;5.282;2023-05-25T00:31:26;11.30;99.90
27667;DHT22;15074;50.940;5.282;2023-05-25T00:33:52;11.30;99.90
27667;DHT22;15074;50.940;5.282;2023-05-25T00:36:17;11.30;99.90
27667;DHT22;15074;50.940;5.282;2023-05-25T00:38:43;11.30;99.90
27667;DHT22;15074;50.940;5.282;2023-05-25T00:41:09;11.20;99.90
27667;DHT22;15074;50.940;5.282;2023-05-25T00:43:35;11.20;99.90
27667;DHT22;15074;50.940;5.282;2023-05-25T00:46:01;11.20;99.90
27667;DHT22;15074;50.940;5.282;2023-05-25T00:48:27;11.30;99.90
27667;DHT22;15074;50.940;5.282;2023-05-25T00:50:54;11.30;99.90
27667;DHT22;15074;50.940;5.282;2023-05-25T00:53:24;11.30;99.90
27667;DHT22;15074;50.940;5.282;2023-05-25T00:56:23;11.30;99.90
27667;DHT22;15074;50.940;5.282;2023-05-25T00:58:53;11.20;99.90
27667;DHT22;15074;50.940;5.282;2023-05-25T01:01:21;11.20;99.90
27667;DHT22;15074;50.940;5.282;2023-05-25T01:03:48;11.20;99.90
27667;DHT22;15074;50.940;5.282;2023-05-25T01:06:20;11.20;99.90
27667;DHT22;15074;50.940;5.282;2023-05-25T01:08:50;11.00;99.90
27667;DHT22;15074;50.940;5.282;2023-05-25T01:11:20;10.80;99.90
27667;DHT22;15074;50.940;5.282;2023-05-25T01:13:52;10.80;99.90
27667;DHT22;15074;50.940;5.282;2023-05-25T01:16:19;10.80;99.90
27667;DHT22;15074;50.940;5.282;2023-05-25T01:18:45;10.90;99.90
27667;DHT22;15074;50.940;5.282;2023-05-25T01:21:43;10.90;99.90
27667;DHT22;15074;50.940;5.282;2023-05-25T01:26:41;10.90;99.90
27667;DHT22;15074;50.940;5.282;2023-05-25T01:29:10;10.90;99.90
27667;DHT22;15074;50.940;5.282;2023-05-25T01:31:36;10.80;99.90
27667;DHT22;15074;50.940;5.282;2023-05-25T01:34:03;10.90;99.90
27667;DHT22;15074;50.940;5.282;2023-05-25T01:36:29;10.90;99.90
27667;DHT22;15074;50.940;5.282;2023-05-25T01:38:56;11.00;99.90
27667;DHT22;15074;50.940;5.282;2023-05-25T01:41:22;10.90;99.90
27667;DHT22;15074;50.940;5.282;2023-05-25T01:43:48;11.00;99.90
27667;DHT22;15074;50.940;5.282;2023-05-25T01:49:36;11.00;99.90
27667;DHT22;15074;50.940;5.282;2023-05-25T01:55:14;10.80;99.90
27667;DHT22;15074;50.940;5.282;2023-05-25T01:57:45;10.70;99.90
27667;DHT22;15074;50.940;5.282;2023-05-25T02:00:14;10.80;99.90
27667;DHT22;15074;50.940;5.282;2023-05-25T02:02:42;10.70;99.90
27667;DHT22;15074;50.940;5.282;2023-05-25T02:05:08;10.80;99.90
27667;DHT22;15074;50.940;5.282;2023-05-25T02:07:35;10.70;99.90
27667;DHT22;15074;50.940;5.282;2023-05-25T02:10:01;10.70;99.90
27667;DHT22;15074;50.940;5.282;2023-05-25T02:12:27;10.70;99.90
27667;DHT22;15074;50.940;5.282;2023-05-25T02:14:52;10.70;99.90
27667;DHT22;15074;50.940;5.282;2023-05-25T02:17:18;10.60;99.90
27667;DHT22;15074;50.940;5.282;2023-05-25T02:19:44;10.50;99.90
27667;DHT22;15074;50.940;5.282;2023-05-25T02:22:11;10.50;99.90
27667;DHT22;15074;50.940;5.282;2023-05-25T02:24:36;10.50;99.90
27667;DHT22;15074;50.940;5.282;2023-05-25T02:27:03;10.50;99.90
27667;DHT22;15074;50.940;5.282;2023-05-25T02:29:29;10.40;99.90
27667;DHT22;15074;50.940;5.282;2023-05-25T02:31:55;10.30;99.90
27667;DHT22;15074;50.940;5.282;2023-05-25T02:34:20;10.30;99.90
27667;DHT22;15074;50.940;5.282;2023-05-25T02:36:46;10.30;99.90
27667;DHT22;15074;50.940;5.282;2023-05-25T02:39:12;10.30;99.90
27667;DHT22;15074;50.940;5.282;2023-05-25T02:41:38;10.30;99.90
27667;DHT22;15074;50.940;5.282;2023-05-25T02:44:04;10.20;99.90
27667;DHT22;15074;50.940;5.282;2023-05-25T02:46:29;10.20;99.90
27667;DHT22;15074;50.940;5.282;2023-05-25T02:48:56;10.30;99.90
27667;DHT22;15074;50.940;5.282;2023-05-25T02:51:23;10.40;99.90
27667;DHT22;15074;50.940;5.282;2023-05-25T02:53:48;10.30;99.90
27667;DHT22;15074;50.940;5.282;2023-05-25T02:56:14;10.30;99.90
27667;DHT22;15074;50.940;5.282;2023-05-25T02:58:40;10.20;99.90
27667;DHT22;15074;50.940;5.282;2023-05-25T03:01:06;10.10;99.90
27667;DHT22;15074;50.940;5.282;2023-05-25T03:03:35;10.00;99.90
27667;DHT22;15074;50.940;5.282;2023-05-25T03:06:01;9.90;99.90
27667;DHT22;15074;50.940;5.282;2023-05-25T03:08:28;9.90;99.90
27667;DHT22;15074;50.940;5.282;2023-05-25T03:10:55;10.10;99.90
27667;DHT22;15074;50.940;5.282;2023-05-25T03:13:21;10.30;99.90
27667;DHT22;15074;50.940;5.282;2023-05-25T03:15:46;10.30;99.90
27667;DHT22;15074;50.940;5.282;2023-05-25T03:18:12;10.40;99.90
27667;DHT22;15074;50.940;5.282;2023-05-25T03:20:38;10.30;99.90
27667;DHT22;15074;50.940;5.282;2023-05-25T03:23:03;10.30;99.90
27667;DHT22;15074;50.940;5.282;2023-05-25T03:25:29;10.10;99.90
27667;DHT22;15074;50.940;5.282;2023-05-25T03:27:55;10.10;99.90
27667;DHT22;15074;50.940;5.282;2023-05-25T03:30:22;10.00;99.90
27667;DHT22;15074;50.940;5.282;2023-05-25T03:32:47;9.90;99.90
27667;DHT22;15074;50.940;5.282;2023-05-25T03:35:13;9.90;99.90
27667;DHT22;15074;50.940;5.282;2023-05-25T03:37:39;9.90;99.90
27667;DHT22;15074;50.940;5.282;2023-05-25T03:40:05;9.90;99.90
27667;DHT22;15074;50.940;5.282;2023-05-25T03:42:31;10.00;99.90
27667;DHT22;15074;50.940;5.282;2023-05-25T03:44:56;10.10;99.90
27667;DHT22;15074;50.940;5.282;2023-05-25T03:47:22;10.20;99.90
27667;DHT22;15074;50.940;5.282;2023-05-25T03:49:48;10.30;99.90
27667;DHT22;15074;50.940;5.282;2023-05-25T03:52:13;10.20;99.90
27667;DHT22;15074;50.940;5.282;2023-05-25T03:54:39;10.20;99.90
27667;DHT22;15074;50.940;5.282;2023-05-25T03:57:05;10.10;99.90
27667;DHT22;15074;50.940;5.282;2023-05-25T03:59:30;10.20;99.90
27667;DHT22;15074;50.940;5.282;2023-05-25T04:01:56;10.20;99.90
27667;DHT22;15074;50.940;5.282;2023-05-25T04:04:22;10.20;99.90
27667;DHT22;15074;50.940;5.282;2023-05-25T04:06:47;10.10;99.90
27667;DHT22;15074;50.940;5.282;2023-05-25T04:09:16;10.20;99.90
27667;DHT22;15074;50.940;5.282;2023-05-25T04:11:43;10.10;99.90
27667;DHT22;15074;50.940;5.282;2023-05-25T04:14:09;10.10;99.90
27667;DHT22;15074;50.940;5.282;2023-05-25T04:16:35;10.10;99.90
27667;DHT22;15074;50.940;5.282;2023-05-25T04:19:01;10.10;99.90
27667;DHT22;15074;50.940;5.282;2023-05-25T04:21:26;10.10;99.90
27667;DHT22;15074;50.940;5.282;2023-05-25T04:23:52;10.20;99.90
27667;DHT22;15074;50.940;5.282;2023-05-25T04:26:18;10.40;99.90
27667;DHT22;15074;50.940;5.282;2023-05-25T04:28:44;10.70;99.90
27667;DHT22;15074;50.940;5.282;2023-05-25T04:31:10;11.00;99.90
27667;DHT22;15074;50.940;5.282;2023-05-25T04:33:38;11.30;99.90
27667;DHT22;15074;50.940;5.282;2023-05-25T04:36:07;11.60;99.90
27667;DHT22;15074;50.940;5.282;2023-05-25T04:38:35;11.70;99.90
27667;DHT22;15074;50.940;5.282;2023-05-25T04:41:01;11.90;99.90
27667;DHT22;15074;50.940;5.282;2023-05-25T04:43:27;12.30;99.90
27667;DHT22;15074;50.940;5.282;2023-05-25T04:45:55;12.70;99.90
27667;DHT22;15074;50.940;5.282;2023-05-25T04:48:21;12.90;99.90
27667;DHT22;15074;50.940;5.282;2023-05-25T04:50:48;13.20;99.90
27667;DHT22;15074;50.940;5.282;2023-05-25T04:53:14;13.50;99.90
27667;DHT22;15074;50.940;5.282;2023-05-25T04:55:40;14.00;99.90
27667;DHT22;15074;50.940;5.282;2023-05-25T04:58:06;14.10;99.90
27667;DHT22;15074;50.940;5.282;2023-05-25T05:00:32;14.40;99.90
27667;DHT22;15074;50.940;5.282;2023-05-25T05:02:59;14.60;99.90
27667;DHT22;15074;50.940;5.282;2023-05-25T05:05:25;14.70;99.90
27667;DHT22;15074;50.940;5.282;2023-05-25T05:07:50;14.90;99.90
27667;DHT22;15074;50.940;5.282;2023-05-25T05:10:18;15.30;99.90
27667;DHT22;15074;50.940;5.282;2023-05-25T05:12:44;15.70;99.90
27667;DHT22;15074;50.940;5.282;2023-05-25T05:15:09;16.00;99.90
27667;DHT22;15074;50.940;5.282;2023-05-25T05:17:35;16.20;99.90
27667;DHT22;15074;50.940;5.282;2023-05-25T05:20:01;16.40;99.90
27667;DHT22;15074;50.940;5.282;2023-05-25T05:22:29;16.10;99.90
27667;DHT22;15074;50.940;5.282;2023-05-25T05:24:55;16.40;99.90
27667;DHT22;15074;50.940;5.282;2023-05-25T05:27:20;16.90;99.90
27667;DHT22;15074;50.940;5.282;2023-05-25T05:29:46;16.80;99.90
27667;DHT22;15074;50.940;5.282;2023-05-25T05:32:12;16.90;99.90
27667;DHT22;15074;50.940;5.282;2023-05-25T05:34:38;17.50;99.90
27667;DHT22;15074;50.940;5.282;2023-05-25T05:37:04;18.30;99.90
27667;DHT22;15074;50.940;5.282;2023-05-25T05:39:29;18.60;99.90
27667;DHT22;15074;50.940;5.282;2023-05-25T05:41:55;18.70;99.90
27667;DHT22;15074;50.940;5.282;2023-05-25T05:44:21;19.40;99.90
27667;DHT22;15074;50.940;5.282;2023-05-25T05:46:48;19.70;99.90
27667;DHT22;15074;50.940;5.282;2023-05-25T05:49:14;19.50;99.90
27667;DHT22;15074;50.940;5.282;2023-05-25T05:51:40;19.10;99.90
27667;DHT22;15074;50.940;5.282;2023-05-25T05:54:06;18.90;99.90
27667;DHT22;15074;50.940;5.282;2023-05-25T05:56:31;19.60;99.90
27667;DHT22;15074;50.940;5.282;2023-05-25T05:58:57;20.10;99.90
27667;DHT22;15074;50.940;5.282;2023-05-25T06:01:23;20.30;99.90
27667;DHT22;15074;50.940;5.282;2023-05-25T06:03:50;19.50;99.90
27667;DHT22;15074;50.940;5.282;2023-05-25T06:06:17;19.60;99.90
27667;DHT22;15074;50.940;5.282;2023-05-25T06:08:43;19.80;99.90
27667;DHT22;15074;50.940;5.282;2023-05-25T06:11:08;19.90;99.90
27667;DHT22;15074;50.940;5.282;2023-05-25T06:13:34;20.90;99.90
27667;DHT22;15074;50.940;5.282;2023-05-25T06:16:00;21.00;99.90
27667;DHT22;15074;50.940;5.282;2023-05-25T06:18:25;20.70;99.90
27667;DHT22;15074;50.940;5.282;2023-05-25T06:20:51;20.20;99.90
27667;DHT22;15074;50.940;5.282;2023-05-25T06:23:16;20.80;99.90
27667;DHT22;15074;50.940;5.282;2023-05-25T06:25:44;21.20;99.90
27667;DHT22;15074;50.940;5.282;2023-05-25T06:28:09;20.40;99.90
27667;DHT22;15074;50.940;5.282;2023-05-25T06:30:35;20.40;99.90
27667;DHT22;15074;50.940;5.282;2023-05-25T06:33:01;20.80;99.90
27667;DHT22;15074;50.940;5.282;2023-05-25T06:35:27;21.10;99.90
27667;DHT22;15074;50.940;5.282;2023-05-25T06:37:53;21.10;99.90
27667;DHT22;15074;50.940;5.282;2023-05-25T06:40:18;21.20;99.90
27667;DHT22;15074;50.940;5.282;2023-05-25T06:42:44;21.30;99.90
27667;DHT22;15074;50.940;5.282;2023-05-25T06:45:10;21.20;99.90
27667;DHT22;15074;50.940;5.282;2023-05-25T06:47:36;21.70;99.90
27667;DHT22;15074;50.940;5.282;2023-05-25T06:50:04;22.20;99.90
27667;DHT22;15074;50.940;5.282;2023-05-25T06:52:30;22.60;99.90
27667;DHT22;15074;50.940;5.282;2023-05-25T06:54:56;23.10;99.90
27667;DHT22;15074;50.940;5.282;2023-05-25T06:57:22;23.10;99.90
27667;DHT22;15074;50.940;5.282;2023-05-25T06:59:48;22.80;99.90
27667;DHT22;15074;50.940;5.282;2023-05-25T07:02:14;22.40;99.90
27667;DHT22;15074;50.940;5.282;2023-05-25T07:04:41;22.80;99.90
27667;DHT22;15074;50.940;5.282;2023-05-25T07:07:13;21.10;99.90
27667;DHT22;15074;50.940;5.282;2023-05-25T07:09:39;20.20;99.90
27667;DHT22;15074;50.940;5.282;2023-05-25T07:12:06;20.80;99.90
27667;DHT22;15074;50.940;5.282;2023-05-25T07:14:43;21.90;99.90
27667;DHT22;15074;50.940;5.282;2023-05-25T07:17:15;22.30;99.90
27667;DHT22;15074;50.940;5.282;2023-05-25T07:19:41;22.90;99.90
27667;DHT22;15074;50.940;5.282;2023-05-25T07:22:08;24.60;99.90
27667;DHT22;15074;50.940;5.282;2023-05-25T07:24:35;26.20;99.30
27667;DHT22;15074;50.940;5.282;2023-05-25T07:27:04;26.60;97.00
27667;DHT22;15074;50.940;5.282;2023-05-25T07:29:30;26.10;96.40
27667;DHT22;15074;50.940;5.282;2023-05-25T07:31:56;24.50;98.20
27667;DHT22;15074;50.940;5.282;2023-05-25T07:34:23;24.10;98.60
27667;DHT22;15074;50.940;5.282;2023-05-25T07:36:50;24.60;97.90
27667;DHT22;15074;50.940;5.282;2023-05-25T07:39:16;25.50;96.20
27667;DHT22;15074;50.940;5.282;2023-05-25T07:41:43;24.70;96.70
27667;DHT22;15074;50.940;5.282;2023-05-25T07:44:10;24.60;96.70
27667;DHT22;15074;50.940;5.282;2023-05-25T07:46:35;24.40;96.40
27667;DHT22;15074;50.940;5.282;2023-05-25T07:49:01;25.00;96.40
27667;DHT22;15074;50.940;5.282;2023-05-25T07:51:29;24.50;96.20
27667;DHT22;15074;50.940;5.282;2023-05-25T07:53:57;24.80;96.70
27667;DHT22;15074;50.940;5.282;2023-05-25T07:56:23;26.20;95.10
27667;DHT22;15074;50.940;5.282;2023-05-25T07:58:49;26.20;94.60
27667;DHT22;15074;50.940;5.282;2023-05-25T08:01:15;26.80;93.60
27667;DHT22;15074;50.940;5.282;2023-05-25T08:03:41;27.00;92.90
27667;DHT22;15074;50.940;5.282;2023-05-25T08:06:07;26.60;92.60
27667;DHT22;15074;50.940;5.282;2023-05-25T08:08:33;26.30;93.40
27667;DHT22;15074;50.940;5.282;2023-05-25T08:10:59;27.10;92.10
27667;DHT22;15074;50.940;5.282;2023-05-25T08:13:24;26.90;92.10
27667;DHT22;15074;50.940;5.282;2023-05-25T08:15:50;27.50;91.60
27667;DHT22;15074;50.940;5.282;2023-05-25T08:18:16;27.90;90.70
27667;DHT22;15074;50.940;5.282;2023-05-25T08:20:46;25.00;92.30
27667;DHT22;15074;50.940;5.282;2023-05-25T08:23:12;24.70;94.40
27667;DHT22;15074;50.940;5.282;2023-05-25T08:25:38;25.80;92.60
27667;DHT22;15074;50.940;5.282;2023-05-25T08:28:25;26.00;92.00
27667;DHT22;15074;50.940;5.282;2023-05-25T08:30:52;26.30;92.10
27667;DHT22;15074;50.940;5.282;2023-05-25T08:33:18;26.50;91.70
27667;DHT22;15074;50.940;5.282;2023-05-25T08:35:43;27.00;91.40
27667;DHT22;15074;50.940;5.282;2023-05-25T08:38:09;27.00;91.40
27667;DHT22;15074;50.940;5.282;2023-05-25T08:40:35;27.20;90.50
27667;DHT22;15074;50.940;5.282;2023-05-25T08:43:05;26.00;91.20
27667;DHT22;15074;50.940;5.282;2023-05-25T08:45:31;25.40;92.30
27667;DHT22;15074;50.940;5.282;2023-05-25T08:47:58;26.20;91.50
27667;DHT22;15074;50.940;5.282;2023-05-25T08:50:26;26.20;91.40
27667;DHT22;15074;50.940;5.282;2023-05-25T08:52:54;26.50;90.60
27667;DHT22;15074;50.940;5.282;2023-05-25T08:55:21;26.70;90.40
27667;DHT22;15074;50.940;5.282;2023-05-25T08:58:01;28.20;88.90
27667;DHT22;15074;50.940;5.282;2023-05-25T09:00:43;28.20;87.70
27667;DHT22;15074;50.940;5.282;2023-05-25T09:03:15;27.20;88.80
27667;DHT22;15074;50.940;5.282;2023-05-25T09:05:42;26.90;88.10
27667;DHT22;15074;50.940;5.282;2023-05-25T09:08:08;26.80;87.50
27667;DHT22;15074;50.940;5.282;2023-05-25T09:10:37;26.00;89.10
27667;DHT22;15074;50.940;5.282;2023-05-25T09:13:05;26.10;88.70
27667;DHT22;15074;50.940;5.282;2023-05-25T09:15:31;26.30;88.40
27667;DHT22;15074;50.940;5.282;2023-05-25T09:17:57;26.90;86.70
27667;DHT22;15074;50.940;5.282;2023-05-25T09:20:23;27.40;86.00
27667;DHT22;15074;50.940;5.282;2023-05-25T09:22:58;28.30;84.10
27667;DHT22;15074;50.940;5.282;2023-05-25T09:25:25;27.60;84.30
27667;DHT22;15074;50.940;5.282;2023-05-25T09:27:52;28.60;82.70
27667;DHT22;15074;50.940;5.282;2023-05-25T09:30:18;27.30;82.80
27667;DHT22;15074;50.940;5.282;2023-05-25T09:32:43;27.00;85.70
27667;DHT22;15074;50.940;5.282;2023-05-25T09:35:13;27.70;84.20
27667;DHT22;15074;50.940;5.282;2023-05-25T09:37:40;26.40;85.80
27667;DHT22;15074;50.940;5.282;2023-05-25T09:40:07;25.80;86.70
27667;DHT22;15074;50.940;5.282;2023-05-25T09:42:39;24.90;89.20
27667;DHT22;15074;50.940;5.282;2023-05-25T09:45:05;24.80;90.10
27667;DHT22;15074;50.940;5.282;2023-05-25T09:47:32;24.50;90.00
27667;DHT22;15074;50.940;5.282;2023-05-25T09:50:01;24.10;90.20
27667;DHT22;15074;50.940;5.282;2023-05-25T09:52:27;24.10;90.70
27667;DHT22;15074;50.940;5.282;2023-05-25T09:54:53;23.80;90.70
27667;DHT22;15074;50.940;5.282;2023-05-25T09:57:20;24.70;89.90
27667;DHT22;15074;50.940;5.282;2023-05-25T09:59:46;25.20;89.00
27667;DHT22;15074;50.940;5.282;2023-05-25T10:02:13;25.90;86.80
27667;DHT22;15074;50.940;5.282;2023-05-25T10:04:38;24.90;88.00
27667;DHT22;15074;50.940;5.282;2023-05-25T10:07:05;25.20;88.10
27667;DHT22;15074;50.940;5.282;2023-05-25T10:09:31;26.10;86.10
27667;DHT22;15074;50.940;5.282;2023-05-25T10:12:00;27.00;86.00
27667;DHT22;15074;50.940;5.282;2023-05-25T10:14:27;26.10;87.30
27667;DHT22;15074;50.940;5.282;2023-05-25T10:16:54;25.20;88.60
27667;DHT22;15074;50.940;5.282;2023-05-25T10:19:45;23.80;90.80
27667;DHT22;15074;50.940;5.282;2023-05-25T10:22:19;23.60;91.10
27667;DHT22;15074;50.940;5.282;2023-05-25T10:25:01;23.50;90.90
27667;DHT22;15074;50.940;5.282;2023-05-25T10:30:20;23.60;91.20
27667;DHT22;15074;50.940;5.282;2023-05-25T10:32:46;24.10;91.10
27667;DHT22;15074;50.940;5.282;2023-05-25T10:35:13;24.10;90.80
27667;DHT22;15074;50.940;5.282;2023-05-25T10:37:39;24.40;90.30
27667;DHT22;15074;50.940;5.282;2023-05-25T10:40:06;24.10;90.10
27667;DHT22;15074;50.940;5.282;2023-05-25T10:42:33;25.10;88.90
27667;DHT22;15074;50.940;5.282;2023-05-25T10:45:03;25.60;87.80
27667;DHT22;15074;50.940;5.282;2023-05-25T10:47:28;26.50;87.00
27667;DHT22;15074;50.940;5.282;2023-05-25T10:49:58;26.30;87.10
27667;DHT22;15074;50.940;5.282;2023-05-25T10:52:30;26.40;86.20
27667;DHT22;15074;50.940;5.282;2023-05-25T10:55:00;27.60;85.30
27667;DHT22;15074;50.940;5.282;2023-05-25T10:57:28;28.20;82.70
27667;DHT22;15074;50.940;5.282;2023-05-25T11:00:01;28.70;81.90
27667;DHT22;15074;50.940;5.282;2023-05-25T11:02:39;28.20;81.40
27667;DHT22;15074;50.940;5.282;2023-05-25T11:07:59;27.70;84.40
27667;DHT22;15074;50.940;5.282;2023-05-25T11:13:31;26.70;83.00
27667;DHT22;15074;50.940;5.282;2023-05-25T11:16:13;25.40;85.50
27667;DHT22;15074;50.940;5.282;2023-05-25T11:18:50;26.10;84.20
27667;DHT22;15074;50.940;5.282;2023-05-25T11:21:39;25.60;84.90
27667;DHT22;15074;50.940;5.282;2023-05-25T11:24:14;26.50;83.10
27667;DHT22;15074;50.940;5.282;2023-05-25T11:26:57;26.50;83.50
27667;DHT22;15074;50.940;5.282;2023-05-25T11:29:29;26.50;83.00
27667;DHT22;15074;50.940;5.282;2023-05-25T11:31:55;26.00;82.20
27667;DHT22;15074;50.940;5.282;2023-05-25T11:34:22;25.50;85.20
27667;DHT22;15074;50.940;5.282;2023-05-25T11:36:59;25.60;84.90
27667;DHT22;15074;50.940;5.282;2023-05-25T11:39:28;25.80;85.10
27667;DHT22;15074;50.940;5.282;2023-05-25T11:42:02;26.50;86.40
27667;DHT22;15074;50.940;5.282;2023-05-25T11:44:32;26.20;85.40
27667;DHT22;15074;50.940;5.282;2023-05-25T11:47:09;27.10;84.50
27667;DHT22;15074;50.940;5.282;2023-05-25T11:49:41;27.60;83.80
27667;DHT22;15074;50.940;5.282;2023-05-25T11:52:11;27.10;83.90
27667;DHT22;15074;50.940;5.282;2023-05-25T11:54:37;26.80;85.10
27667;DHT22;15074;50.940;5.282;2023-05-25T11:57:13;26.80;85.70
27667;DHT22;15074;50.940;5.282;2023-05-25T11:59:39;26.60;85.00
27667;DHT22;15074;50.940;5.282;2023-05-25T12:02:05;25.80;86.20
27667;DHT22;15074;50.940;5.282;2023-05-25T12:04:32;25.70;87.00
27667;DHT22;15074;50.940;5.282;2023-05-25T12:07:02;25.30;87.90
27667;DHT22;15074;50.940;5.282;2023-05-25T12:09:27;24.60;87.80
27667;DHT22;15074;50.940;5.282;2023-05-25T12:11:53;24.30;89.00
27667;DHT22;15074;50.940;5.282;2023-05-25T12:14:19;23.90;89.40
27667;DHT22;15074;50.940;5.282;2023-05-25T12:16:45;24.20;89.50
27667;DHT22;15074;50.940;5.282;2023-05-25T12:19:11;24.40;90.00
27667;DHT22;15074;50.940;5.282;2023-05-25T12:21:39;24.20;88.70
27667;DHT22;15074;50.940;5.282;2023-05-25T12:24:06;25.20;89.10
27667;DHT22;15074;50.940;5.282;2023-05-25T12:26:32;25.80;87.20
27667;DHT22;15074;50.940;5.282;2023-05-25T12:29:03;27.00;86.20
27667;DHT22;15074;50.940;5.282;2023-05-25T12:31:31;26.60;82.50
27667;DHT22;15074;50.940;5.282;2023-05-25T12:34:25;26.00;84.80
27667;DHT22;15074;50.940;5.282;2023-05-25T12:36:54;25.80;86.20
27667;DHT22;15074;50.940;5.282;2023-05-25T12:41:59;25.00;89.30
27667;DHT22;15074;50.940;5.282;2023-05-25T12:44:33;24.80;89.70
27667;DHT22;15074;50.940;5.282;2023-05-25T12:47:10;24.30;90.30
27667;DHT22;15074;50.940;5.282;2023-05-25T12:49:36;24.10;90.50
27667;DHT22;15074;50.940;5.282;2023-05-25T12:52:03;24.30;90.60
27667;DHT22;15074;50.940;5.282;2023-05-25T12:54:40;24.30;90.60
27667;DHT22;15074;50.940;5.282;2023-05-25T12:57:07;24.90;90.00
27667;DHT22;15074;50.940;5.282;2023-05-25T12:59:38;25.30;90.10
27667;DHT22;15074;50.940;5.282;2023-05-25T13:02:04;24.90;90.20
27667;DHT22;15074;50.940;5.282;2023-05-25T13:04:31;25.30;89.20
27667;DHT22;15074;50.940;5.282;2023-05-25T13:06:57;25.20;88.70
27667;DHT22;15074;50.940;5.282;2023-05-25T13:09:24;25.00;88.40
27667;DHT22;15074;50.940;5.282;2023-05-25T13:11:54;24.50;89.30
27667;DHT22;15074;50.940;5.282;2023-05-25T13:14:20;24.80;88.90
27667;DHT22;15074;50.940;5.282;2023-05-25T13:16:46;24.50;89.00
27667;DHT22;15074;50.940;5.282;2023-05-25T13:19:12;25.10;88.90
27667;DHT22;15074;50.940;5.282;2023-05-25T13:21:38;24.30;89.50
27667;DHT22;15074;50.940;5.282;2023-05-25T13:24:04;24.50;90.10
27667;DHT22;15074;50.940;5.282;2023-05-25T13:26:30;24.60;88.70
27667;DHT22;15074;50.940;5.282;2023-05-25T13:28:55;24.30;89.90
27667;DHT22;15074;50.940;5.282;2023-05-25T13:31:21;24.40;90.20
27667;DHT22;15074;50.940;5.282;2023-05-25T13:33:47;24.40;90.30
27667;DHT22;15074;50.940;5.282;2023-05-25T13:36:12;23.90;91.10
27667;DHT22;15074;50.940;5.282;2023-05-25T13:38:39;24.00;90.70
27667;DHT22;15074;50.940;5.282;2023-05-25T13:41:05;24.30;90.70
27667;DHT22;15074;50.940;5.282;2023-05-25T13:43:31;24.50;89.50
27667;DHT22;15074;50.940;5.282;2023-05-25T13:45:57;24.30;90.00
27667;DHT22;15074;50.940;5.282;2023-05-25T13:48:24;24.70;89.30
27667;DHT22;15074;50.940;5.282;2023-05-25T13:50:50;24.20;90.00
27667;DHT22;15074;50.940;5.282;2023-05-25T13:53:15;24.40;90.10
27667;DHT22;15074;50.940;5.282;2023-05-25T13:55:41;24.60;90.20
27667;DHT22;15074;50.940;5.282;2023-05-25T13:58:07;24.20;89.80
27667;DHT22;15074;50.940;5.282;2023-05-25T14:00:34;23.80;90.40
27667;DHT22;15074;50.940;5.282;2023-05-25T14:03:00;24.10;90.10
27667;DHT22;15074;50.940;5.282;2023-05-25T14:05:25;24.70;88.80
27667;DHT22;15074;50.940;5.282;2023-05-25T14:07:51;24.80;89.10
27667;DHT22;15074;50.940;5.282;2023-05-25T14:10:17;25.00;89.30
27667;DHT22;15074;50.940;5.282;2023-05-25T14:12:43;25.20;87.90
27667;DHT22;15074;50.940;5.282;2023-05-25T14:15:09;24.80;89.80
27667;DHT22;15074;50.940;5.282;2023-05-25T14:17:35;24.90;88.00
27667;DHT22;15074;50.940;5.282;2023-05-25T14:20:01;24.10;88.40
27667;DHT22;15074;50.940;5.282;2023-05-25T14:22:30;23.80;89.90
27667;DHT22;15074;50.940;5.282;2023-05-25T14:24:55;23.40;89.80
27667;DHT22;15074;50.940;5.282;2023-05-25T14:27:21;23.30;90.50
27667;DHT22;15074;50.940;5.282;2023-05-25T14:29:48;23.30;90.40
27667;DHT22;15074;50.940;5.282;2023-05-25T14:32:16;22.50;91.80
27667;DHT22;15074;50.940;5.282;2023-05-25T14:34:43;23.00;90.60
27667;DHT22;15074;50.940;5.282;2023-05-25T14:37:09;22.80;90.90
27667;DHT22;15074;50.940;5.282;2023-05-25T14:39:37;22.70;90.60
27667;DHT22;15074;50.940;5.282;2023-05-25T14:42:03;22.90;91.30
27667;DHT22;15074;50.940;5.282;2023-05-25T14:44:30;23.80;90.30
27667;DHT22;15074;50.940;5.282;2023-05-25T14:46:57;24.50;90.20
27667;DHT22;15074;50.940;5.282;2023-05-25T14:49:23;24.60;88.40
27667;DHT22;15074;50.940;5.282;2023-05-25T14:51:52;23.80;90.10
27667;DHT22;15074;50.940;5.282;2023-05-25T14:54:18;22.80;90.80
27667;DHT22;15074;50.940;5.282;2023-05-25T14:56:45;22.60;91.00
27667;DHT22;15074;50.940;5.282;2023-05-25T14:59:11;22.30;91.40
27667;DHT22;15074;50.940;5.282;2023-05-25T15:01:37;22.20;91.40
27667;DHT22;15074;50.940;5.282;2023-05-25T15:04:03;22.00;91.40
27667;DHT22;15074;50.940;5.282;2023-05-25T15:06:29;21.90;91.40
27667;DHT22;15074;50.940;5.282;2023-05-25T15:08:56;21.50;91.90
27667;DHT22;15074;50.940;5.282;2023-05-25T15:11:22;21.50;92.00
27667;DHT22;15074;50.940;5.282;2023-05-25T15:14:07;21.60;91.40
27667;DHT22;15074;50.940;5.282;2023-05-25T15:17:11;21.40;92.30
27667;DHT22;15074;50.940;5.282;2023-05-25T15:20:05;21.60;92.10
27667;DHT22;15074;50.940;5.282;2023-05-25T15:22:58;21.90;92.30
27667;DHT22;15074;50.940;5.282;2023-05-25T15:26:19;22.00;92.10
27667;DHT22;15074;50.940;5.282;2023-05-25T15:33:08;21.10;92.90
27667;DHT22;15074;50.940;5.282;2023-05-25T15:36:36;20.50;93.60
27667;DHT22;15074;50.940;5.282;2023-05-25T15:39:41;20.60;94.00
27667;DHT22;15074;50.940;5.282;2023-05-25T15:42:22;20.60;93.90
27667;DHT22;15074;50.940;5.282;2023-05-25T15:45:11;20.70;93.80
27667;DHT22;15074;50.940;5.282;2023-05-25T15:47:57;20.80;93.60
27667;DHT22;15074;50.940;5.282;2023-05-25T15:50:22;20.40;94.20
27667;DHT22;15074;50.940;5.282;2023-05-25T15:52:48;20.20;94.40
27667;DHT22;15074;50.940;5.282;2023-05-25T15:55:14;20.30;94.50
27667;DHT22;15074;50.940;5.282;2023-05-25T15:57:40;20.40;95.10
27667;DHT22;15074;50.940;5.282;2023-05-25T16:00:06;20.00;95.00
27667;DHT22;15074;50.940;5.282;2023-05-25T16:02:32;20.00;95.40